createdAt,value
2017-04-24T00:00:06.314Z,51.98
2017-04-24T00:00:47.122Z,51.7
2017-04-24T00:01:27.971Z,51.89
2017-04-24T00:02:08.743Z,51.6
2017-04-24T00:02:49.505Z,51.6
2017-04-24T00:03:30.224Z,51.6
2017-04-24T00:04:10.951Z,51.79
2017-04-24T00:04:51.724Z,51.98
2017-04-24T00:05:32.466Z,51.79
2017-04-24T00:06:13.221Z,51.79
2017-04-24T00:06:53.983Z,51.89
2017-04-24T00:07:34.840Z,51.98
2017-04-24T00:08:15.538Z,51.98
2017-04-24T00:08:56.298Z,51.6
2017-04-24T00:09:37.168Z,51.79
2017-04-24T00:10:17.890Z,51.89
2017-04-24T00:10:58.674Z,51.98
2017-04-24T00:11:39.449Z,51.89
2017-04-24T00:12:20.200Z,51.7
2017-04-24T00:13:00.875Z,51.98
2017-04-24T00:13:41.665Z,51.79
2017-04-24T00:14:22.467Z,51.5
2017-04-24T00:15:03.218Z,51.6
2017-04-24T00:15:44.001Z,51.79
2017-04-24T00:16:24.786Z,51.89
2017-04-24T00:17:05.511Z,51.98
2017-04-24T00:17:46.206Z,51.7
2017-04-24T00:18:26.981Z,51.89
2017-04-24T00:19:07.693Z,51.6
2017-04-24T00:19:48.482Z,51.89
2017-04-24T00:20:29.178Z,51.79
2017-04-24T00:21:09.932Z,51.7
2017-04-24T00:21:50.703Z,51.7
2017-04-24T00:22:31.511Z,51.79
2017-04-24T00:23:12.240Z,51.7
2017-04-24T00:23:52.973Z,51.89
2017-04-24T00:24:33.736Z,51.6
2017-04-24T00:25:14.498Z,51.98
2017-04-24T00:25:55.261Z,51.79
2017-04-24T00:26:36.035Z,51.79
2017-04-24T00:27:16.800Z,51.89
2017-04-24T00:27:57.619Z,51.98
2017-04-24T00:28:38.331Z,51.7
2017-04-24T00:29:19.088Z,51.89
2017-04-24T00:29:59.829Z,51.7
2017-04-24T00:30:40.612Z,51.98
2017-04-24T00:31:21.301Z,51.79
2017-04-24T00:32:02.019Z,51.7
2017-04-24T00:32:42.741Z,51.7
2017-04-24T00:33:23.427Z,51.98
2017-04-24T00:34:04.133Z,51.89
2017-04-24T00:34:44.868Z,51.79
2017-04-24T00:35:25.620Z,51.89
2017-04-24T00:36:09.219Z,52.08
2017-04-24T00:36:49.987Z,51.89
2017-04-24T00:37:30.692Z,51.98
2017-04-24T00:38:11.518Z,51.89
2017-04-24T00:38:52.255Z,51.98
2017-04-24T00:39:32.924Z,51.89
2017-04-24T00:40:13.702Z,51.98
2017-04-24T00:40:54.490Z,51.6
2017-04-24T00:41:35.262Z,51.98
2017-04-24T00:42:16.014Z,51.89
2017-04-24T00:42:56.745Z,51.79
2017-04-24T00:43:37.564Z,51.89
2017-04-24T00:44:18.334Z,52.08
2017-04-24T00:44:59.140Z,51.89
2017-04-24T00:45:39.881Z,51.79
2017-04-24T00:46:20.652Z,52.08
2017-04-24T00:47:01.472Z,51.89
2017-04-24T00:47:42.203Z,51.79
2017-04-24T00:48:22.985Z,51.79
2017-04-24T00:49:03.672Z,51.89
2017-04-24T00:49:44.385Z,51.79
2017-04-24T00:50:25.147Z,51.89
2017-04-24T00:51:05.978Z,51.79
2017-04-24T00:51:46.765Z,51.79
2017-04-24T00:52:27.473Z,51.89
2017-04-24T00:53:08.187Z,51.98
2017-04-24T00:53:48.908Z,51.79
2017-04-24T00:54:29.535Z,51.79
2017-04-24T00:55:10.260Z,51.89
2017-04-24T00:55:51.006Z,51.79
2017-04-24T00:56:31.841Z,51.89
2017-04-24T00:57:12.595Z,51.79
2017-04-24T00:57:53.396Z,51.79
2017-04-24T00:58:34.151Z,51.79
2017-04-24T00:59:14.871Z,51.98
2017-04-24T00:59:55.702Z,51.79
2017-04-24T01:00:36.532Z,51.89
2017-04-24T01:01:17.294Z,51.79
2017-04-24T01:01:58.091Z,51.98
2017-04-24T01:02:38.842Z,51.98
2017-04-24T01:03:19.659Z,51.98
2017-04-24T01:04:00.513Z,51.98
2017-04-24T01:04:41.364Z,51.79
2017-04-24T01:05:22.096Z,51.98
2017-04-24T01:06:02.803Z,51.79
2017-04-24T01:07:52.554Z,51.89
2017-04-24T01:08:33.307Z,51.98
2017-04-24T01:09:14.016Z,51.79
2017-04-24T01:09:54.864Z,51.89
2017-04-24T01:10:35.593Z,51.98
2017-04-24T01:11:16.407Z,51.79
2017-04-24T01:11:57.241Z,51.89
2017-04-24T01:12:38.015Z,51.89
2017-04-24T01:13:18.736Z,51.89
2017-04-24T01:13:59.481Z,51.98
2017-04-24T01:14:40.170Z,51.98
2017-04-24T01:15:20.930Z,51.79
2017-04-24T01:16:01.706Z,51.98
2017-04-24T01:16:42.523Z,51.98
2017-04-24T01:17:23.225Z,51.98
2017-04-24T01:18:03.988Z,51.98
2017-04-24T01:18:44.649Z,51.89
2017-04-24T01:19:25.524Z,51.98
2017-04-24T01:20:06.252Z,51.98
2017-04-24T01:20:47.040Z,51.98
2017-04-24T01:21:27.837Z,51.79
2017-04-24T01:22:08.552Z,51.98
2017-04-24T01:22:49.409Z,51.79
2017-04-24T01:23:30.142Z,51.98
2017-04-24T01:24:10.893Z,51.79
2017-04-24T01:24:51.664Z,51.79
2017-04-24T01:25:32.392Z,51.98
2017-04-24T01:26:13.197Z,51.79
2017-04-24T01:26:53.948Z,51.98
2017-04-24T01:27:34.705Z,51.98
2017-04-24T01:28:15.431Z,51.79
2017-04-24T01:28:56.175Z,51.89
2017-04-24T01:29:36.936Z,51.98
2017-04-24T01:30:17.746Z,51.79
2017-04-24T01:30:59.332Z,51.79
2017-04-24T01:31:39.245Z,51.79
2017-04-24T01:32:20.065Z,51.76
2017-04-24T01:33:00.757Z,51.79
2017-04-24T01:33:41.534Z,52.08
2017-04-24T01:34:22.290Z,51.98
2017-04-24T01:35:02.973Z,51.79
2017-04-24T01:35:43.791Z,52.08
2017-04-24T01:36:24.596Z,51.79
2017-04-24T01:37:05.340Z,51.98
2017-04-24T01:37:46.033Z,51.79
2017-04-24T01:38:26.771Z,51.98
2017-04-24T01:39:07.461Z,51.89
2017-04-24T01:39:48.187Z,51.89
2017-04-24T01:40:28.994Z,52.08
2017-04-24T01:41:09.787Z,51.98
2017-04-24T01:41:50.537Z,51.98
2017-04-24T01:42:31.376Z,51.89
2017-04-24T01:43:12.076Z,51.89
2017-04-24T01:43:52.787Z,51.86
2017-04-24T01:44:33.496Z,51.79
2017-04-24T01:45:14.234Z,51.79
2017-04-24T01:45:55.002Z,52.08
2017-04-24T01:46:35.769Z,52.08
2017-04-24T01:47:16.552Z,51.89
2017-04-24T01:47:57.255Z,51.76
2017-04-24T01:48:38.037Z,51.89
2017-04-24T01:49:18.765Z,51.89
2017-04-24T01:49:59.505Z,51.98
2017-04-24T01:50:40.223Z,51.96
2017-04-24T01:51:21.017Z,51.98
2017-04-24T01:52:01.803Z,51.98
2017-04-24T01:52:42.517Z,51.89
2017-04-24T01:53:23.261Z,51.89
2017-04-24T01:54:03.997Z,51.89
2017-04-24T01:54:44.797Z,51.89
2017-04-24T01:55:25.557Z,51.79
2017-04-24T01:56:06.249Z,51.98
2017-04-24T01:56:47.029Z,51.89
2017-04-24T01:57:27.740Z,51.98
2017-04-24T01:58:08.514Z,51.98
2017-04-24T01:58:49.264Z,51.79
2017-04-24T01:59:30.091Z,51.96
2017-04-24T02:00:10.835Z,51.79
2017-04-24T02:00:51.603Z,51.7
2017-04-24T02:01:32.345Z,51.98
2017-04-24T02:02:13.073Z,51.89
2017-04-24T02:02:53.988Z,51.67
2017-04-24T02:03:34.731Z,51.89
2017-04-24T02:04:15.445Z,51.89
2017-04-24T02:04:56.169Z,51.89
2017-04-24T02:05:36.844Z,51.86
2017-04-24T02:06:17.611Z,51.89
2017-04-24T02:06:58.374Z,51.86
2017-04-24T02:07:39.113Z,51.89
2017-04-24T02:08:19.825Z,51.98
2017-04-24T02:09:00.576Z,51.89
2017-04-24T02:09:41.325Z,51.89
2017-04-24T02:10:22.090Z,51.86
2017-04-24T02:11:02.814Z,51.98
2017-04-24T02:11:43.616Z,51.98
2017-04-24T02:12:24.354Z,51.96
2017-04-24T02:13:05.081Z,51.96
2017-04-24T02:13:45.871Z,51.86
2017-04-24T02:14:26.616Z,51.79
2017-04-24T02:15:07.396Z,51.96
2017-04-24T02:15:48.165Z,51.89
2017-04-24T02:16:28.882Z,51.86
2017-04-24T02:17:09.642Z,51.98
2017-04-24T02:17:50.410Z,51.76
2017-04-24T02:18:31.131Z,51.86
2017-04-24T02:19:11.910Z,51.76
2017-04-24T02:19:52.691Z,51.86
2017-04-24T02:20:33.406Z,51.7
2017-04-24T02:21:14.126Z,51.98
2017-04-24T02:21:54.841Z,51.96
2017-04-24T02:22:35.681Z,51.98
2017-04-24T02:23:16.392Z,51.89
2017-04-24T02:23:57.050Z,51.96
2017-04-24T02:24:37.865Z,51.96
2017-04-24T02:25:18.599Z,51.98
2017-04-24T02:25:59.374Z,51.98
2017-04-24T02:26:40.110Z,51.86
2017-04-24T02:27:20.926Z,51.98
2017-04-24T02:28:01.650Z,52.08
2017-04-24T02:28:42.327Z,51.86
2017-04-24T02:29:23.009Z,51.79
2017-04-24T02:30:03.808Z,51.96
2017-04-24T02:30:44.599Z,51.96
2017-04-24T02:31:25.388Z,51.98
2017-04-24T02:32:06.101Z,51.96
2017-04-24T02:32:46.818Z,52.08
2017-04-24T02:33:27.565Z,52.08
2017-04-24T02:34:08.297Z,51.89
2017-04-24T02:34:49.082Z,51.96
2017-04-24T02:35:29.823Z,52.08
2017-04-24T02:36:10.526Z,51.86
2017-04-24T02:36:51.330Z,51.79
2017-04-24T02:37:32.125Z,51.76
2017-04-24T02:38:12.919Z,51.79
2017-04-24T02:38:53.818Z,51.89
2017-04-24T02:39:34.612Z,51.67
2017-04-24T02:40:15.379Z,51.79
2017-04-24T02:40:56.118Z,51.89
2017-04-24T02:41:36.783Z,51.86
2017-04-24T02:42:17.575Z,51.76
2017-04-24T02:42:58.283Z,51.79
2017-04-24T02:43:39.058Z,51.86
2017-04-24T02:44:19.872Z,51.98
2017-04-24T02:45:00.654Z,51.76
2017-04-24T02:45:41.491Z,51.89
2017-04-24T02:46:22.176Z,51.89
2017-04-24T02:47:02.922Z,51.86
2017-04-24T02:47:43.625Z,51.96
2017-04-24T02:48:24.304Z,51.79
2017-04-24T02:49:05.099Z,51.89
2017-04-24T02:49:45.829Z,51.86
2017-04-24T02:50:26.544Z,51.76
2017-04-24T02:51:07.325Z,51.67
2017-04-24T02:51:47.991Z,51.96
2017-04-24T02:52:28.843Z,51.89
2017-04-24T02:53:09.554Z,51.96
2017-04-24T02:53:50.361Z,51.86
2017-04-24T02:54:31.163Z,51.76
2017-04-24T02:55:11.820Z,51.86
2017-04-24T02:55:52.539Z,51.89
2017-04-24T02:56:33.335Z,51.86
2017-04-24T02:57:14.077Z,51.76
2017-04-24T02:57:54.944Z,51.86
2017-04-24T02:58:35.729Z,51.96
2017-04-24T02:59:16.442Z,51.96
2017-04-24T02:59:57.262Z,52.08
2017-04-24T03:00:37.983Z,51.86
2017-04-24T03:01:18.783Z,51.96
2017-04-24T03:01:59.509Z,51.79
2017-04-24T03:02:40.347Z,51.86
2017-04-24T03:03:21.047Z,51.86
2017-04-24T03:04:01.833Z,51.79
2017-04-24T03:04:42.595Z,51.76
2017-04-24T03:05:23.424Z,51.76
2017-04-24T03:06:04.188Z,51.86
2017-04-24T03:06:47.519Z,51.76
2017-04-24T03:07:28.319Z,51.96
2017-04-24T03:08:09.063Z,51.86
2017-04-24T03:08:49.874Z,51.96
2017-04-24T03:09:30.598Z,51.79
2017-04-24T03:10:11.353Z,51.76
2017-04-24T03:10:52.166Z,51.86
2017-04-24T03:11:32.878Z,51.76
2017-04-24T03:12:13.645Z,51.86
2017-04-24T03:12:54.387Z,51.86
2017-04-24T03:13:35.176Z,51.96
2017-04-24T03:14:15.833Z,51.76
2017-04-24T03:14:56.553Z,51.86
2017-04-24T03:15:37.316Z,51.98
2017-04-24T03:16:18.039Z,51.76
2017-04-24T03:16:58.878Z,51.86
2017-04-24T03:17:39.582Z,51.86
2017-04-24T03:18:20.407Z,51.76
2017-04-24T03:19:01.125Z,51.76
2017-04-24T03:19:41.910Z,51.76
2017-04-24T03:20:22.698Z,51.89
2017-04-24T03:21:03.434Z,51.7
2017-04-24T03:21:44.181Z,51.67
2017-04-24T03:22:24.894Z,51.96
2017-04-24T03:23:05.609Z,51.6
2017-04-24T03:23:46.319Z,51.86
2017-04-24T03:24:27.104Z,51.57
2017-04-24T03:25:07.886Z,51.98
2017-04-24T03:25:48.573Z,51.86
2017-04-24T03:26:29.294Z,51.67
2017-04-24T03:27:10.172Z,51.67
2017-04-24T03:27:50.968Z,51.67
2017-04-24T03:28:31.818Z,51.67
2017-04-24T03:29:12.566Z,51.7
2017-04-24T03:29:53.285Z,51.76
2017-04-24T03:30:33.993Z,51.86
2017-04-24T03:31:14.789Z,51.98
2017-04-24T03:31:55.479Z,51.86
2017-04-24T03:32:36.242Z,51.86
2017-04-24T03:33:17.001Z,51.48
2017-04-24T03:33:57.817Z,51.67
2017-04-24T03:34:38.662Z,51.86
2017-04-24T03:35:19.411Z,51.76
2017-04-24T03:36:00.108Z,51.96
2017-04-24T03:36:40.837Z,51.76
2017-04-24T03:37:21.595Z,51.86
2017-04-24T03:38:02.282Z,51.96
2017-04-24T03:38:43.057Z,51.76
2017-04-24T03:39:23.795Z,51.86
2017-04-24T03:40:04.570Z,51.76
2017-04-24T03:40:45.299Z,51.76
2017-04-24T03:41:26.109Z,51.76
2017-04-24T03:42:06.842Z,51.79
2017-04-24T03:42:47.617Z,51.76
2017-04-24T03:43:28.319Z,51.89
2017-04-24T03:44:09.154Z,51.96
2017-04-24T03:44:49.812Z,51.76
2017-04-24T03:45:30.533Z,51.86
2017-04-24T03:46:11.255Z,51.76
2017-04-24T03:46:52.087Z,51.86
2017-04-24T03:47:32.844Z,51.86
2017-04-24T03:48:13.565Z,51.76
2017-04-24T03:48:54.334Z,51.76
2017-04-24T03:49:35.118Z,51.76
2017-04-24T03:50:15.940Z,51.86
2017-04-24T03:50:56.709Z,51.76
2017-04-24T03:51:37.406Z,51.86
2017-04-24T03:52:18.149Z,51.86
2017-04-24T03:52:58.850Z,51.86
2017-04-24T03:53:39.649Z,51.96
2017-04-24T03:54:20.374Z,51.57
2017-04-24T03:55:01.203Z,51.86
2017-04-24T03:55:41.993Z,51.67
2017-04-24T03:56:22.773Z,51.96
2017-04-24T03:57:03.515Z,51.86
2017-04-24T03:57:44.237Z,51.76
2017-04-24T03:58:25.116Z,51.76
2017-04-24T03:59:05.893Z,51.86
2017-04-24T03:59:46.649Z,51.86
2017-04-24T04:00:27.380Z,51.86
2017-04-24T04:01:08.135Z,51.76
2017-04-24T04:01:48.898Z,51.76
2017-04-24T04:02:29.628Z,51.96
2017-04-24T04:03:10.334Z,51.86
2017-04-24T04:03:51.113Z,51.76
2017-04-24T04:04:31.796Z,51.57
2017-04-24T04:05:12.554Z,51.67
2017-04-24T04:05:53.291Z,51.96
2017-04-24T04:06:34.060Z,51.67
2017-04-24T04:07:14.853Z,51.86
2017-04-24T04:07:55.573Z,51.76
2017-04-24T04:08:36.318Z,51.86
2017-04-24T04:09:17.013Z,51.96
2017-04-24T04:09:57.740Z,51.57
2017-04-24T04:10:38.463Z,51.76
2017-04-24T04:11:19.229Z,51.96
2017-04-24T04:11:59.946Z,51.76
2017-04-24T04:12:40.699Z,51.86
2017-04-24T04:13:21.483Z,51.96
2017-04-24T04:14:02.260Z,51.67
2017-04-24T04:14:43.140Z,51.76
2017-04-24T04:15:23.911Z,51.76
2017-04-24T04:16:04.693Z,51.86
2017-04-24T04:16:45.446Z,51.86
2017-04-24T04:17:26.232Z,51.76
2017-04-24T04:18:07.039Z,51.86
2017-04-24T04:18:47.775Z,51.76
2017-04-24T04:19:28.463Z,51.86
2017-04-24T04:20:09.236Z,51.96
2017-04-24T04:20:50.020Z,51.86
2017-04-24T04:21:30.717Z,51.76
2017-04-24T04:22:11.482Z,51.86
2017-04-24T04:22:52.204Z,51.86
2017-04-24T04:23:32.934Z,51.76
2017-04-24T04:24:13.665Z,51.76
2017-04-24T04:24:54.441Z,51.76
2017-04-24T04:25:35.228Z,51.76
2017-04-24T04:26:15.919Z,51.86
2017-04-24T04:26:56.780Z,51.76
2017-04-24T04:27:37.538Z,51.76
2017-04-24T04:28:18.370Z,51.76
2017-04-24T04:28:59.139Z,52.06
2017-04-24T04:29:39.971Z,51.67
2017-04-24T04:30:20.804Z,51.86
2017-04-24T04:31:01.533Z,51.76
2017-04-24T04:31:42.283Z,51.76
2017-04-24T04:32:23.081Z,52.06
2017-04-24T04:33:03.818Z,51.67
2017-04-24T04:33:44.597Z,52.06
2017-04-24T04:34:25.374Z,51.86
2017-04-24T04:35:06.177Z,51.76
2017-04-24T04:35:46.956Z,51.76
2017-04-24T04:36:27.626Z,51.86
2017-04-24T04:37:10.876Z,51.96
2017-04-24T04:37:51.625Z,51.86
2017-04-24T04:38:32.418Z,51.86
2017-04-24T04:39:13.154Z,51.86
2017-04-24T04:39:54.047Z,51.96
2017-04-24T04:40:34.801Z,51.86
2017-04-24T04:41:15.526Z,51.86
2017-04-24T04:41:56.264Z,51.86
2017-04-24T04:42:37.056Z,51.86
2017-04-24T04:43:17.772Z,51.96
2017-04-24T04:43:58.480Z,51.86
2017-04-24T04:44:39.189Z,51.86
2017-04-24T04:45:19.960Z,52.06
2017-04-24T04:46:00.675Z,51.96
2017-04-24T04:46:41.527Z,51.86
2017-04-24T04:47:22.285Z,51.76
2017-04-24T04:48:03.072Z,51.86
2017-04-24T04:48:43.830Z,51.57
2017-04-24T04:49:24.631Z,51.67
2017-04-24T04:50:05.373Z,51.29
2017-04-24T04:50:46.097Z,51.86
2017-04-24T04:51:26.858Z,51.96
2017-04-24T04:52:07.645Z,51.86
2017-04-24T04:52:48.403Z,51.86
2017-04-24T04:53:29.101Z,51.96
2017-04-24T04:54:09.977Z,51.86
2017-04-24T04:54:50.692Z,51.76
2017-04-24T04:55:31.410Z,51.96
2017-04-24T04:56:12.137Z,52.06
2017-04-24T04:56:52.956Z,51.38
2017-04-24T04:57:33.662Z,52.06
2017-04-24T04:58:14.435Z,51.86
2017-04-24T04:58:55.226Z,51.96
2017-04-24T04:59:35.976Z,51.29
2017-04-24T05:00:16.795Z,51.48
2017-04-24T05:00:57.679Z,51.86
2017-04-24T05:01:38.384Z,51.86
2017-04-24T05:02:19.244Z,51.48
2017-04-24T05:02:59.998Z,51.96
2017-04-24T05:03:40.789Z,51.86
2017-04-24T05:04:21.464Z,51.48
2017-04-24T05:05:02.188Z,51.96
2017-04-24T05:05:42.927Z,51.86
2017-04-24T05:06:23.633Z,51.96
2017-04-24T05:07:04.368Z,51.86
2017-04-24T05:07:45.118Z,51.48
2017-04-24T05:08:25.826Z,51.38
2017-04-24T05:09:06.631Z,51.29
2017-04-24T05:09:47.446Z,51.96
2017-04-24T05:10:28.309Z,51.29
2017-04-24T05:11:09.018Z,51.86
2017-04-24T05:11:49.803Z,51.86
2017-04-24T05:12:30.511Z,51.96
2017-04-24T05:13:11.258Z,51.96
2017-04-24T05:13:52.171Z,51.38
2017-04-24T05:14:32.846Z,51.96
2017-04-24T05:15:13.578Z,51.86
2017-04-24T05:15:54.382Z,51.29
2017-04-24T05:16:35.093Z,51.48
2017-04-24T05:17:15.836Z,51.67
2017-04-24T05:17:56.647Z,51.29
2017-04-24T05:18:37.450Z,51.48
2017-04-24T05:19:18.235Z,51.67
2017-04-24T05:19:58.942Z,51.29
2017-04-24T05:20:39.681Z,51.67
2017-04-24T05:21:20.470Z,51.19
2017-04-24T05:22:01.270Z,51.19
2017-04-24T05:22:42.010Z,50.9
2017-04-24T05:23:22.741Z,51.09
2017-04-24T05:24:03.480Z,50.99
2017-04-24T05:24:44.255Z,50.99
2017-04-24T05:25:25.103Z,51.19
2017-04-24T05:26:05.804Z,51.09
2017-04-24T05:26:46.452Z,51.12
2017-04-24T05:27:27.201Z,51.09
2017-04-24T05:28:08.011Z,51.09
2017-04-24T05:28:48.744Z,51.02
2017-04-24T05:29:29.537Z,50.99
2017-04-24T05:30:10.337Z,51.12
2017-04-24T05:30:50.998Z,50.83
2017-04-24T05:31:31.798Z,50.93
2017-04-24T05:32:12.455Z,51.41
2017-04-24T05:32:53.269Z,51.02
2017-04-24T05:33:33.997Z,51.21
2017-04-24T05:34:14.713Z,51.12
2017-04-24T05:34:55.523Z,50.93
2017-04-24T05:35:36.291Z,50.73
2017-04-24T05:36:17.161Z,50.93
2017-04-24T05:36:57.971Z,50.73
2017-04-24T05:37:38.729Z,50.83
2017-04-24T05:38:19.472Z,50.83
2017-04-24T05:39:00.174Z,51.21
2017-04-24T05:39:40.862Z,51.12
2017-04-24T05:40:21.592Z,51.02
2017-04-24T05:41:02.301Z,51.02
2017-04-24T05:41:43.088Z,51.21
2017-04-24T05:42:23.830Z,51.12
2017-04-24T05:43:04.574Z,50.73
2017-04-24T05:43:45.351Z,51.02
2017-04-24T05:44:26.088Z,50.63
2017-04-24T05:45:06.875Z,50.73
2017-04-24T05:45:47.555Z,50.15
2017-04-24T05:46:28.316Z,50.15
2017-04-24T05:47:08.995Z,49.87
2017-04-24T05:47:49.737Z,50.27
2017-04-24T05:48:30.522Z,49.79
2017-04-24T05:49:11.248Z,49.41
2017-04-24T05:49:52.001Z,49.02
2017-04-24T05:50:32.751Z,49.7
2017-04-24T05:51:13.506Z,49.24
2017-04-24T05:51:54.348Z,49.05
2017-04-24T05:52:35.205Z,48.86
2017-04-24T05:53:15.944Z,48.66
2017-04-24T05:53:56.691Z,48.76
2017-04-24T05:54:37.517Z,48.57
2017-04-24T05:55:18.206Z,48.28
2017-04-24T05:55:59.017Z,48.38
2017-04-24T05:56:39.769Z,48.08
2017-04-24T05:57:20.560Z,48.18
2017-04-24T05:58:01.293Z,48.08
2017-04-24T05:58:42.055Z,47.89
2017-04-24T05:59:22.840Z,47.7
2017-04-24T06:00:03.609Z,47.99
2017-04-24T06:00:44.401Z,47.89
2017-04-24T06:01:25.095Z,47.8
2017-04-24T06:02:05.789Z,47.82
2017-04-24T06:02:46.560Z,47.72
2017-04-24T06:03:27.341Z,47.92
2017-04-24T06:04:08.063Z,47.82
2017-04-24T06:04:48.838Z,47.82
2017-04-24T06:05:29.537Z,47.53
2017-04-24T06:06:10.311Z,47.63
2017-04-24T06:06:53.617Z,47.72
2017-04-24T06:07:34.483Z,47.72
2017-04-24T06:08:15.292Z,47.92
2017-04-24T06:08:56.101Z,48.01
2017-04-24T06:09:36.774Z,47.24
2017-04-24T06:10:17.590Z,47.14
2017-04-24T06:10:58.357Z,46.59
2017-04-24T06:11:39.068Z,45.45
2017-04-24T06:12:19.863Z,44.42
2017-04-24T06:13:00.684Z,43.2
2017-04-24T06:13:41.500Z,42.16
2017-04-24T06:14:22.220Z,40.65
2017-04-24T06:15:02.945Z,40
2017-04-24T06:15:43.764Z,39.04
2017-04-24T06:16:24.580Z,38
2017-04-24T06:17:05.359Z,37.34
2017-04-24T06:17:46.051Z,36.95
2017-04-24T06:18:26.880Z,37.03
2017-04-24T06:19:07.701Z,37.79
2017-04-24T06:19:48.554Z,39.03
2017-04-24T06:20:29.273Z,40.05
2017-04-24T06:21:10.045Z,41.39
2017-04-24T06:21:50.814Z,42.21
2017-04-24T06:22:31.578Z,43.47
2017-04-24T06:23:12.357Z,44.03
2017-04-24T06:23:53.096Z,44.49
2017-04-24T06:24:33.763Z,44.97
2017-04-24T06:25:14.475Z,45.07
2017-04-24T06:25:55.197Z,45.17
2017-04-24T06:26:35.919Z,45.36
2017-04-24T06:27:16.675Z,45.55
2017-04-24T06:27:57.437Z,45.55
2017-04-24T06:28:38.192Z,45.75
2017-04-24T06:29:18.909Z,45.75
2017-04-24T06:29:59.676Z,45.65
2017-04-24T06:30:40.442Z,45.55
2017-04-24T06:31:21.468Z,45.75
2017-04-24T06:32:02.186Z,45.62
2017-04-24T06:32:42.944Z,45.55
2017-04-24T06:33:23.724Z,45.75
2017-04-24T06:34:04.503Z,45.75
2017-04-24T06:34:45.330Z,45.75
2017-04-24T06:35:26.222Z,45.65
2017-04-24T06:36:07.063Z,45.75
2017-04-24T06:36:47.874Z,45.36
2017-04-24T06:37:28.692Z,45.65
2017-04-24T06:38:09.589Z,45.17
2017-04-24T06:38:50.418Z,45.26
2017-04-24T06:39:31.196Z,45.07
2017-04-24T06:40:11.875Z,45.45
2017-04-24T06:40:52.653Z,45.07
2017-04-24T06:41:33.400Z,44.97
2017-04-24T06:42:15.092Z,45.17
2017-04-24T06:42:55.890Z,45.17
2017-04-24T06:43:36.652Z,45.07
2017-04-24T06:44:17.410Z,45.36
2017-04-24T06:44:58.178Z,45.26
2017-04-24T06:45:38.932Z,44.97
2017-04-24T06:46:19.680Z,45.17
2017-04-24T06:47:00.967Z,45.17
2017-04-24T06:47:41.723Z,45.17
2017-04-24T06:48:22.539Z,45.17
2017-04-24T06:49:03.277Z,44.78
2017-04-24T06:49:44.084Z,44.68
2017-04-24T06:50:24.750Z,44.49
2017-04-24T06:51:05.473Z,44.49
2017-04-24T06:51:46.289Z,44.9
2017-04-24T06:52:27.103Z,44.42
2017-04-24T06:53:07.817Z,44.51
2017-04-24T06:53:48.583Z,44.6
2017-04-24T06:54:29.862Z,44.42
2017-04-24T06:55:10.644Z,44.42
2017-04-24T06:55:51.382Z,44.42
2017-04-24T06:56:32.151Z,44.6
2017-04-24T06:57:12.901Z,44.32
2017-04-24T06:57:53.600Z,44.42
2017-04-24T06:58:34.325Z,44.42
2017-04-24T06:59:15.072Z,44.51
2017-04-24T06:59:55.878Z,44.22
2017-04-24T07:00:36.914Z,44.12
2017-04-24T07:01:17.717Z,44.42
2017-04-24T07:01:58.446Z,44.34
2017-04-24T07:02:39.278Z,44.51
2017-04-24T07:03:19.997Z,44.42
2017-04-24T07:04:00.713Z,44.53
2017-04-24T07:04:41.517Z,44.43
2017-04-24T07:05:22.223Z,44.43
2017-04-24T07:06:03.013Z,44.53
2017-04-24T07:06:43.726Z,44.43
2017-04-24T07:07:25.317Z,44.43
2017-04-24T07:08:06.162Z,44.43
2017-04-24T07:08:46.903Z,44.34
2017-04-24T07:09:27.637Z,44.73
2017-04-24T07:10:08.469Z,44.43
2017-04-24T07:10:49.244Z,44.63
2017-04-24T07:11:30.047Z,44.53
2017-04-24T07:12:10.845Z,44.43
2017-04-24T07:12:51.731Z,44.53
2017-04-24T07:13:32.442Z,44.53
2017-04-24T07:14:13.192Z,44.34
2017-04-24T07:14:53.953Z,44.63
2017-04-24T07:15:34.760Z,44.43
2017-04-24T07:16:15.585Z,44.43
2017-04-24T07:16:56.360Z,44.43
2017-04-24T07:17:37.096Z,44.63
2017-04-24T07:18:17.811Z,44.34
2017-04-24T07:18:58.597Z,44.43
2017-04-24T07:19:39.315Z,44.34
2017-04-24T07:20:20.050Z,44.43
2017-04-24T07:21:00.809Z,44.63
2017-04-24T07:21:41.556Z,44.34
2017-04-24T07:22:22.294Z,44.63
2017-04-24T07:23:03.061Z,44.53
2017-04-24T07:23:43.804Z,44.53
2017-04-24T07:24:24.494Z,44.63
2017-04-24T07:25:05.275Z,44.63
2017-04-24T07:25:46.018Z,44.63
2017-04-24T07:26:26.715Z,44.34
2017-04-24T07:27:07.426Z,44.56
2017-04-24T07:27:48.283Z,44.36
2017-04-24T07:28:29.103Z,44.26
2017-04-24T07:29:09.800Z,44.56
2017-04-24T07:29:50.539Z,44.65
2017-04-24T07:30:31.325Z,44.46
2017-04-24T07:31:12.112Z,44.36
2017-04-24T07:31:52.865Z,44.36
2017-04-24T07:32:33.721Z,44.65
2017-04-24T07:33:14.484Z,44.36
2017-04-24T07:33:55.250Z,44.17
2017-04-24T07:34:35.995Z,44.46
2017-04-24T07:35:16.721Z,44.07
2017-04-24T07:35:57.573Z,44.26
2017-04-24T07:36:38.299Z,44.46
2017-04-24T07:37:19.049Z,44.26
2017-04-24T07:37:59.759Z,44.46
2017-04-24T07:38:40.472Z,44.56
2017-04-24T07:39:21.261Z,44.17
2017-04-24T07:40:02.042Z,44.65
2017-04-24T07:40:42.788Z,44.07
2017-04-24T07:41:23.559Z,44.17
2017-04-24T07:42:04.352Z,44.07
2017-04-24T07:42:45.108Z,44.26
2017-04-24T07:43:25.902Z,43.88
2017-04-24T07:44:06.625Z,43.99
2017-04-24T07:44:47.433Z,44.07
2017-04-24T07:45:28.241Z,43.9
2017-04-24T07:46:08.973Z,43.9
2017-04-24T07:46:49.674Z,44.19
2017-04-24T07:47:30.439Z,44.19
2017-04-24T07:48:11.141Z,44.19
2017-04-24T07:48:51.887Z,44.19
2017-04-24T07:49:32.664Z,43.9
2017-04-24T07:50:13.439Z,43.99
2017-04-24T07:50:54.240Z,44.19
2017-04-24T07:51:35.042Z,44.19
2017-04-24T07:52:15.789Z,43.9
2017-04-24T07:52:56.539Z,44.29
2017-04-24T07:53:37.377Z,44.09
2017-04-24T07:54:18.112Z,44.19
2017-04-24T07:54:58.954Z,44.48
2017-04-24T07:55:39.744Z,44.29
2017-04-24T07:56:20.456Z,44.38
2017-04-24T07:57:01.161Z,44.09
2017-04-24T07:57:41.917Z,44.57
2017-04-24T07:58:22.666Z,44.09
2017-04-24T07:59:03.477Z,44.57
2017-04-24T07:59:44.219Z,44.29
2017-04-24T08:00:24.972Z,44.29
2017-04-24T08:01:05.750Z,44.38
2017-04-24T08:01:46.498Z,44.38
2017-04-24T08:02:27.212Z,44.31
2017-04-24T08:03:08.020Z,44.57
2017-04-24T08:03:48.677Z,44.48
2017-04-24T08:04:29.447Z,44.38
2017-04-24T08:05:10.208Z,44.31
2017-04-24T08:05:51.032Z,44.09
2017-04-24T08:06:31.786Z,44.48
2017-04-24T08:07:12.577Z,44.29
2017-04-24T08:07:53.350Z,44.38
2017-04-24T08:08:34.127Z,44.4
2017-04-24T08:09:14.971Z,43.92
2017-04-24T08:09:55.764Z,43.92
2017-04-24T08:10:36.570Z,44.4
2017-04-24T08:11:17.365Z,43.92
2017-04-24T08:11:58.067Z,43.92
2017-04-24T08:12:38.915Z,44.02
2017-04-24T08:13:19.618Z,43.82
2017-04-24T08:14:00.372Z,43.92
2017-04-24T08:14:41.129Z,44.12
2017-04-24T08:15:21.852Z,44.12
2017-04-24T08:16:02.698Z,43.82
2017-04-24T08:16:43.437Z,44.21
2017-04-24T08:17:24.195Z,44.02
2017-04-24T08:18:04.900Z,44.12
2017-04-24T08:18:45.632Z,44.12
2017-04-24T08:19:26.425Z,43.82
2017-04-24T08:20:07.118Z,43.82
2017-04-24T08:20:47.881Z,43.82
2017-04-24T08:21:28.641Z,44.02
2017-04-24T08:22:09.450Z,43.73
2017-04-24T08:22:50.236Z,44.02
2017-04-24T08:23:31.001Z,43.82
2017-04-24T08:24:11.709Z,43.92
2017-04-24T08:24:52.525Z,43.82
2017-04-24T08:25:33.221Z,43.73
2017-04-24T08:26:13.989Z,43.63
2017-04-24T08:26:54.804Z,43.63
2017-04-24T08:27:35.538Z,43.73
2017-04-24T08:28:16.281Z,43.63
2017-04-24T08:28:57.032Z,43.44
2017-04-24T08:29:37.755Z,43.73
2017-04-24T08:30:18.467Z,43.54
2017-04-24T08:30:59.211Z,43.54
2017-04-24T08:31:39.974Z,43.73
2017-04-24T08:32:20.747Z,43.44
2017-04-24T08:33:01.525Z,43.44
2017-04-24T08:33:42.289Z,43.54
2017-04-24T08:34:23.056Z,43.63
2017-04-24T08:35:03.815Z,43.63
2017-04-24T08:35:44.614Z,43.54
2017-04-24T08:36:25.404Z,43.73
2017-04-24T08:37:06.209Z,43.63
2017-04-24T08:37:46.901Z,43.44
2017-04-24T08:38:27.693Z,43.54
2017-04-24T08:39:08.424Z,43.54
2017-04-24T08:39:49.148Z,43.54
2017-04-24T08:40:29.972Z,43.63
2017-04-24T08:41:10.687Z,43.54
2017-04-24T08:41:51.513Z,43.54
2017-04-24T08:42:32.222Z,43.54
2017-04-24T08:43:13.025Z,43.73
2017-04-24T08:43:53.759Z,43.54
2017-04-24T08:44:34.526Z,43.63
2017-04-24T08:45:15.302Z,43.44
2017-04-24T08:45:56.074Z,43.54
2017-04-24T08:46:36.878Z,43.34
2017-04-24T08:47:17.550Z,43.34